sensor_id;sensor_type;location;lat;lon;timestamp;temperature;humidity
6654;DHT22;3363;50.942;7.034;2022-12-10T00:01:24;2.00;99.90
6654;DHT22;3363;50.942;7.034;2022-12-10T00:03:52;2.10;99.90
6654;DHT22;3363;50.942;7.034;2022-12-10T00:06:21;2.10;99.90
6654;DHT22;3363;50.942;7.034;2022-12-10T00:08:49;2.10;99.90
6654;DHT22;3363;50.942;7.034;2022-12-10T00:11:19;2.10;99.90
6654;DHT22;3363;50.942;7.034;2022-12-10T00:13:48;2.10;99.90
6654;DHT22;3363;50.942;7.034;2022-12-10T00:16:17;2.00;99.10
6654;DHT22;3363;50.942;7.034;2022-12-10T00:18:45;2.00;99.90
6654;DHT22;3363;50.942;7.034;2022-12-10T00:21:14;2.00;99.90
6654;DHT22;3363;50.942;7.034;2022-12-10T00:23:43;2.00;99.90
6654;DHT22;3363;50.942;7.034;2022-12-10T00:26:12;2.10;99.90
6654;DHT22;3363;50.942;7.034;2022-12-10T00:28:43;2.00;99.60
6654;DHT22;3363;50.942;7.034;2022-12-10T00:31:12;2.00;99.80
6654;DHT22;3363;50.942;7.034;2022-12-10T00:33:40;2.00;99.80
6654;DHT22;3363;50.942;7.034;2022-12-10T00:36:10;2.00;99.90
6654;DHT22;3363;50.942;7.034;2022-12-10T00:38:40;2.00;99.40
6654;DHT22;3363;50.942;7.034;2022-12-10T00:41:08;2.00;99.40
6654;DHT22;3363;50.942;7.034;2022-12-10T00:43:35;2.00;99.40
6654;DHT22;3363;50.942;7.034;2022-12-10T00:46:04;2.00;99.30
6654;DHT22;3363;50.942;7.034;2022-12-10T00:48:31;1.90;99.10
6654;DHT22;3363;50.942;7.034;2022-12-10T00:51:01;1.90;99.20
6654;DHT22;3363;50.942;7.034;2022-12-10T00:53:32;1.90;99.20
6654;DHT22;3363;50.942;7.034;2022-12-10T00:56:00;1.90;99.20
6654;DHT22;3363;50.942;7.034;2022-12-10T00:58:30;1.90;98.90
6654;DHT22;3363;50.942;7.034;2022-12-10T01:01:08;1.90;99.00
6654;DHT22;3363;50.942;7.034;2022-12-10T01:03:37;1.90;98.90
6654;DHT22;3363;50.942;7.034;2022-12-10T01:06:09;1.90;98.90
6654;DHT22;3363;50.942;7.034;2022-12-10T01:08:37;1.90;98.90
6654;DHT22;3363;50.942;7.034;2022-12-10T01:11:04;1.90;98.70
6654;DHT22;3363;50.942;7.034;2022-12-10T01:13:32;1.80;98.50
6654;DHT22;3363;50.942;7.034;2022-12-10T01:16:00;1.80;98.30
6654;DHT22;3363;50.942;7.034;2022-12-10T01:18:29;1.80;98.30
6654;DHT22;3363;50.942;7.034;2022-12-10T01:21:00;1.80;98.50
6654;DHT22;3363;50.942;7.034;2022-12-10T01:23:28;1.80;98.30
6654;DHT22;3363;50.942;7.034;2022-12-10T01:26:01;1.80;98.00
6654;DHT22;3363;50.942;7.034;2022-12-10T01:28:30;1.80;98.00
6654;DHT22;3363;50.942;7.034;2022-12-10T01:31:00;1.80;97.80
6654;DHT22;3363;50.942;7.034;2022-12-10T01:33:30;1.80;97.70
6654;DHT22;3363;50.942;7.034;2022-12-10T01:36:02;1.80;97.50
6654;DHT22;3363;50.942;7.034;2022-12-10T01:38:29;1.80;97.50
6654;DHT22;3363;50.942;7.034;2022-12-10T01:40:57;1.80;97.50
6654;DHT22;3363;50.942;7.034;2022-12-10T01:43:24;1.80;97.50
6654;DHT22;3363;50.942;7.034;2022-12-10T01:45:51;1.80;97.10
6654;DHT22;3363;50.942;7.034;2022-12-10T01:48:19;1.80;96.80
6654;DHT22;3363;50.942;7.034;2022-12-10T01:50:48;1.80;96.60
6654;DHT22;3363;50.942;7.034;2022-12-10T01:53:15;1.80;96.60
6654;DHT22;3363;50.942;7.034;2022-12-10T01:55:49;1.70;96.40
6654;DHT22;3363;50.942;7.034;2022-12-10T01:58:18;1.70;95.20
6654;DHT22;3363;50.942;7.034;2022-12-10T02:01:03;1.70;96.40
6654;DHT22;3363;50.942;7.034;2022-12-10T02:03:38;1.70;96.20
6654;DHT22;3363;50.942;7.034;2022-12-10T02:06:21;1.70;96.20
6654;DHT22;3363;50.942;7.034;2022-12-10T02:09:01;1.70;96.10
6654;DHT22;3363;50.942;7.034;2022-12-10T02:11:37;1.70;96.00
6654;DHT22;3363;50.942;7.034;2022-12-10T02:14:12;1.70;96.10
6654;DHT22;3363;50.942;7.034;2022-12-10T02:16:44;1.70;96.00
6654;DHT22;3363;50.942;7.034;2022-12-10T02:19:21;1.70;95.90
6654;DHT22;3363;50.942;7.034;2022-12-10T02:21:54;1.70;95.90
6654;DHT22;3363;50.942;7.034;2022-12-10T02:24:24;1.60;95.80
6654;DHT22;3363;50.942;7.034;2022-12-10T02:26:58;1.60;95.90
6654;DHT22;3363;50.942;7.034;2022-12-10T02:29:32;1.60;95.80
6654;DHT22;3363;50.942;7.034;2022-12-10T02:32:03;1.60;95.70
6654;DHT22;3363;50.942;7.034;2022-12-10T02:34:37;1.60;95.70
6654;DHT22;3363;50.942;7.034;2022-12-10T02:37:12;1.60;95.50
6654;DHT22;3363;50.942;7.034;2022-12-10T02:39:46;1.60;95.50
6654;DHT22;3363;50.942;7.034;2022-12-10T02:42:16;1.60;95.40
6654;DHT22;3363;50.942;7.034;2022-12-10T02:44:47;1.60;95.40
6654;DHT22;3363;50.942;7.034;2022-12-10T02:47:16;1.60;95.50
6654;DHT22;3363;50.942;7.034;2022-12-10T02:49:47;1.60;95.40
6654;DHT22;3363;50.942;7.034;2022-12-10T02:52:19;1.60;95.20
6654;DHT22;3363;50.942;7.034;2022-12-10T02:55:01;1.60;95.50
6654;DHT22;3363;50.942;7.034;2022-12-10T02:57:35;1.60;95.20
6654;DHT22;3363;50.942;7.034;2022-12-10T03:00:10;1.60;95.10
6654;DHT22;3363;50.942;7.034;2022-12-10T03:03:14;1.60;95.10
6654;DHT22;3363;50.942;7.034;2022-12-10T03:05:52;1.60;95.00
6654;DHT22;3363;50.942;7.034;2022-12-10T03:08:24;1.60;95.00
6654;DHT22;3363;50.942;7.034;2022-12-10T03:10:57;1.60;94.90
6654;DHT22;3363;50.942;7.034;2022-12-10T03:13:31;1.60;94.80
6654;DHT22;3363;50.942;7.034;2022-12-10T03:16:02;1.60;94.70
6654;DHT22;3363;50.942;7.034;2022-12-10T03:18:31;1.60;94.30
6654;DHT22;3363;50.942;7.034;2022-12-10T03:21:03;1.60;94.70
6654;DHT22;3363;50.942;7.034;2022-12-10T03:23:34;1.60;94.60
6654;DHT22;3363;50.942;7.034;2022-12-10T03:26:04;1.60;94.40
6654;DHT22;3363;50.942;7.034;2022-12-10T03:28:33;1.60;94.80
6654;DHT22;3363;50.942;7.034;2022-12-10T03:31:06;1.60;94.50
6654;DHT22;3363;50.942;7.034;2022-12-10T03:33:34;1.60;94.60
6654;DHT22;3363;50.942;7.034;2022-12-10T03:36:02;1.60;94.70
6654;DHT22;3363;50.942;7.034;2022-12-10T03:38:30;1.60;94.70
6654;DHT22;3363;50.942;7.034;2022-12-10T03:40:57;1.60;94.70
6654;DHT22;3363;50.942;7.034;2022-12-10T03:43:24;1.60;94.60
6654;DHT22;3363;50.942;7.034;2022-12-10T03:45:51;1.50;94.60
6654;DHT22;3363;50.942;7.034;2022-12-10T03:48:19;1.50;95.10
6654;DHT22;3363;50.942;7.034;2022-12-10T03:50:46;1.50;95.00
6654;DHT22;3363;50.942;7.034;2022-12-10T03:53:14;1.50;94.90
6654;DHT22;3363;50.942;7.034;2022-12-10T03:55:41;1.60;95.00
6654;DHT22;3363;50.942;7.034;2022-12-10T03:58:08;1.50;94.80
6654;DHT22;3363;50.942;7.034;2022-12-10T04:00:35;1.50;94.70
6654;DHT22;3363;50.942;7.034;2022-12-10T04:03:02;1.50;95.10
6654;DHT22;3363;50.942;7.034;2022-12-10T04:05:31;1.50;95.00
6654;DHT22;3363;50.942;7.034;2022-12-10T04:07:58;1.60;95.10
6654;DHT22;3363;50.942;7.034;2022-12-10T04:10:25;1.60;94.90
6654;DHT22;3363;50.942;7.034;2022-12-10T04:12:52;1.60;94.70
6654;DHT22;3363;50.942;7.034;2022-12-10T04:15:33;1.60;94.90
6654;DHT22;3363;50.942;7.034;2022-12-10T04:18:17;1.60;94.90
6654;DHT22;3363;50.942;7.034;2022-12-10T04:20:46;1.60;94.80
6654;DHT22;3363;50.942;7.034;2022-12-10T04:23:30;1.60;94.90
6654;DHT22;3363;50.942;7.034;2022-12-10T04:26:15;1.60;94.70
6654;DHT22;3363;50.942;7.034;2022-12-10T04:29:00;1.60;94.70
6654;DHT22;3363;50.942;7.034;2022-12-10T04:31:27;1.50;94.90
6654;DHT22;3363;50.942;7.034;2022-12-10T04:33:54;1.50;94.80
6654;DHT22;3363;50.942;7.034;2022-12-10T04:36:22;1.50;94.90
6654;DHT22;3363;50.942;7.034;2022-12-10T04:38:49;1.60;94.90
6654;DHT22;3363;50.942;7.034;2022-12-10T04:41:16;1.60;94.90
6654;DHT22;3363;50.942;7.034;2022-12-10T04:43:43;1.50;94.70
6654;DHT22;3363;50.942;7.034;2022-12-10T04:46:11;1.60;94.70
6654;DHT22;3363;50.942;7.034;2022-12-10T04:48:38;1.60;94.90
6654;DHT22;3363;50.942;7.034;2022-12-10T04:51:05;1.50;94.60
6654;DHT22;3363;50.942;7.034;2022-12-10T04:53:33;1.50;94.80
6654;DHT22;3363;50.942;7.034;2022-12-10T04:56:00;1.50;92.60
6654;DHT22;3363;50.942;7.034;2022-12-10T04:58:30;1.40;94.80
6654;DHT22;3363;50.942;7.034;2022-12-10T05:01:01;1.50;95.10
6654;DHT22;3363;50.942;7.034;2022-12-10T05:03:29;1.50;95.00
6654;DHT22;3363;50.942;7.034;2022-12-10T05:06:00;1.50;94.80
6654;DHT22;3363;50.942;7.034;2022-12-10T05:08:39;1.50;94.80
6654;DHT22;3363;50.942;7.034;2022-12-10T05:11:09;1.50;94.70
6654;DHT22;3363;50.942;7.034;2022-12-10T05:13:37;1.50;94.70
6654;DHT22;3363;50.942;7.034;2022-12-10T05:16:07;1.50;94.70
6654;DHT22;3363;50.942;7.034;2022-12-10T05:21:05;1.50;94.40
6654;DHT22;3363;50.942;7.034;2022-12-10T05:23:35;1.50;94.60
6654;DHT22;3363;50.942;7.034;2022-12-10T05:26:05;1.50;94.70
6654;DHT22;3363;50.942;7.034;2022-12-10T05:28:35;1.60;94.70
6654;DHT22;3363;50.942;7.034;2022-12-10T05:31:04;1.50;94.60
6654;DHT22;3363;50.942;7.034;2022-12-10T05:33:31;1.60;94.40
6654;DHT22;3363;50.942;7.034;2022-12-10T05:36:01;1.50;94.30
6654;DHT22;3363;50.942;7.034;2022-12-10T05:38:31;1.50;94.60
6654;DHT22;3363;50.942;7.034;2022-12-10T05:41:02;1.50;94.90
6654;DHT22;3363;50.942;7.034;2022-12-10T05:43:29;1.50;94.80
6654;DHT22;3363;50.942;7.034;2022-12-10T05:45:59;1.50;94.80
6654;DHT22;3363;50.942;7.034;2022-12-10T05:48:27;1.50;94.30
6654;DHT22;3363;50.942;7.034;2022-12-10T05:50:55;1.50;94.90
6654;DHT22;3363;50.942;7.034;2022-12-10T05:53:22;1.50;94.70
6654;DHT22;3363;50.942;7.034;2022-12-10T05:55:49;1.50;94.90
6654;DHT22;3363;50.942;7.034;2022-12-10T05:58:18;1.50;95.00
6654;DHT22;3363;50.942;7.034;2022-12-10T06:00:45;1.50;95.10
6654;DHT22;3363;50.942;7.034;2022-12-10T06:03:12;1.50;95.00
6654;DHT22;3363;50.942;7.034;2022-12-10T06:05:39;1.50;95.10
6654;DHT22;3363;50.942;7.034;2022-12-10T06:08:07;1.50;95.20
6654;DHT22;3363;50.942;7.034;2022-12-10T06:10:35;1.50;94.90
6654;DHT22;3363;50.942;7.034;2022-12-10T06:13:02;1.50;95.00
6654;DHT22;3363;50.942;7.034;2022-12-10T06:15:31;1.50;95.40
6654;DHT22;3363;50.942;7.034;2022-12-10T06:17:59;1.50;95.30
6654;DHT22;3363;50.942;7.034;2022-12-10T06:20:26;1.50;95.20
6654;DHT22;3363;50.942;7.034;2022-12-10T06:22:53;1.50;95.30
6654;DHT22;3363;50.942;7.034;2022-12-10T06:25:20;1.50;95.20
6654;DHT22;3363;50.942;7.034;2022-12-10T06:27:47;1.50;94.90
6654;DHT22;3363;50.942;7.034;2022-12-10T06:30:14;1.50;95.50
6654;DHT22;3363;50.942;7.034;2022-12-10T06:32:43;1.50;95.80
6654;DHT22;3363;50.942;7.034;2022-12-10T06:35:10;1.50;95.90
6654;DHT22;3363;50.942;7.034;2022-12-10T06:37:37;1.50;95.70
6654;DHT22;3363;50.942;7.034;2022-12-10T06:40:05;1.50;95.60
6654;DHT22;3363;50.942;7.034;2022-12-10T06:42:33;1.40;95.10
6654;DHT22;3363;50.942;7.034;2022-12-10T06:45:00;1.40;96.40
6654;DHT22;3363;50.942;7.034;2022-12-10T06:47:27;1.50;96.60
6654;DHT22;3363;50.942;7.034;2022-12-10T06:49:55;1.40;95.90
6654;DHT22;3363;50.942;7.034;2022-12-10T06:52:22;1.40;97.20
6654;DHT22;3363;50.942;7.034;2022-12-10T06:54:49;1.50;97.30
6654;DHT22;3363;50.942;7.034;2022-12-10T06:57:17;1.50;96.60
6654;DHT22;3363;50.942;7.034;2022-12-10T06:59:44;1.50;96.20
6654;DHT22;3363;50.942;7.034;2022-12-10T07:02:11;1.50;96.20
6654;DHT22;3363;50.942;7.034;2022-12-10T07:04:38;1.50;96.60
6654;DHT22;3363;50.942;7.034;2022-12-10T07:07:07;1.50;96.30
6654;DHT22;3363;50.942;7.034;2022-12-10T07:09:34;1.50;96.10
6654;DHT22;3363;50.942;7.034;2022-12-10T07:12:01;1.50;96.40
6654;DHT22;3363;50.942;7.034;2022-12-10T07:14:28;1.50;96.60
6654;DHT22;3363;50.942;7.034;2022-12-10T07:16:55;1.50;96.60
6654;DHT22;3363;50.942;7.034;2022-12-10T07:19:22;1.50;96.50
6654;DHT22;3363;50.942;7.034;2022-12-10T07:21:49;1.50;96.30
6654;DHT22;3363;50.942;7.034;2022-12-10T07:24:18;1.50;96.70
6654;DHT22;3363;50.942;7.034;2022-12-10T07:26:46;1.50;96.70
6654;DHT22;3363;50.942;7.034;2022-12-10T07:29:16;1.40;96.60
6654;DHT22;3363;50.942;7.034;2022-12-10T07:31:45;1.50;96.70
6654;DHT22;3363;50.942;7.034;2022-12-10T07:34:13;1.50;96.90
6654;DHT22;3363;50.942;7.034;2022-12-10T07:36:41;1.50;96.50
6654;DHT22;3363;50.942;7.034;2022-12-10T07:39:09;1.50;96.30
6654;DHT22;3363;50.942;7.034;2022-12-10T07:41:43;1.50;96.50
6654;DHT22;3363;50.942;7.034;2022-12-10T07:44:12;1.50;96.60
6654;DHT22;3363;50.942;7.034;2022-12-10T07:46:39;1.50;96.70
6654;DHT22;3363;50.942;7.034;2022-12-10T07:49:06;1.50;96.80
6654;DHT22;3363;50.942;7.034;2022-12-10T07:51:33;1.50;96.70
6654;DHT22;3363;50.942;7.034;2022-12-10T07:54:00;1.50;96.50
6654;DHT22;3363;50.942;7.034;2022-12-10T07:56:28;1.50;96.30
6654;DHT22;3363;50.942;7.034;2022-12-10T07:58:56;1.50;96.30
6654;DHT22;3363;50.942;7.034;2022-12-10T08:01:25;1.50;96.60
6654;DHT22;3363;50.942;7.034;2022-12-10T08:03:55;1.50;96.80
6654;DHT22;3363;50.942;7.034;2022-12-10T08:06:24;1.50;97.40
6654;DHT22;3363;50.942;7.034;2022-12-10T08:08:52;1.50;97.20
6654;DHT22;3363;50.942;7.034;2022-12-10T08:11:20;1.50;97.00
6654;DHT22;3363;50.942;7.034;2022-12-10T08:13:48;1.50;97.00
6654;DHT22;3363;50.942;7.034;2022-12-10T08:16:19;1.60;97.00
6654;DHT22;3363;50.942;7.034;2022-12-10T08:18:48;1.60;96.80
6654;DHT22;3363;50.942;7.034;2022-12-10T08:21:17;1.60;96.60
6654;DHT22;3363;50.942;7.034;2022-12-10T08:23:46;1.60;96.30
6654;DHT22;3363;50.942;7.034;2022-12-10T08:26:15;1.60;96.20
6654;DHT22;3363;50.942;7.034;2022-12-10T08:28:43;1.60;96.30
6654;DHT22;3363;50.942;7.034;2022-12-10T08:31:12;1.60;96.20
6654;DHT22;3363;50.942;7.034;2022-12-10T08:33:41;1.60;96.30
6654;DHT22;3363;50.942;7.034;2022-12-10T08:36:10;1.60;96.50
6654;DHT22;3363;50.942;7.034;2022-12-10T08:38:40;1.60;96.70
6654;DHT22;3363;50.942;7.034;2022-12-10T08:41:08;1.60;96.90
6654;DHT22;3363;50.942;7.034;2022-12-10T08:43:36;1.60;96.70
6654;DHT22;3363;50.942;7.034;2022-12-10T08:46:04;1.70;96.60
6654;DHT22;3363;50.942;7.034;2022-12-10T08:48:31;1.60;96.80
6654;DHT22;3363;50.942;7.034;2022-12-10T08:51:01;1.70;97.10
6654;DHT22;3363;50.942;7.034;2022-12-10T08:53:28;1.70;97.00
6654;DHT22;3363;50.942;7.034;2022-12-10T08:55:55;1.70;97.00
6654;DHT22;3363;50.942;7.034;2022-12-10T08:58:23;1.70;96.70
6654;DHT22;3363;50.942;7.034;2022-12-10T09:00:50;1.70;96.60
6654;DHT22;3363;50.942;7.034;2022-12-10T09:03:17;1.70;96.80
6654;DHT22;3363;50.942;7.034;2022-12-10T09:05:45;1.60;97.30
6654;DHT22;3363;50.942;7.034;2022-12-10T09:08:13;1.70;97.60
6654;DHT22;3363;50.942;7.034;2022-12-10T09:10:40;1.60;97.60
6654;DHT22;3363;50.942;7.034;2022-12-10T09:13:08;1.60;97.10
6654;DHT22;3363;50.942;7.034;2022-12-10T09:15:35;1.50;98.50
6654;DHT22;3363;50.942;7.034;2022-12-10T09:18:02;1.60;98.30
6654;DHT22;3363;50.942;7.034;2022-12-10T09:20:29;1.70;97.70
6654;DHT22;3363;50.942;7.034;2022-12-10T09:22:56;1.70;97.10
6654;DHT22;3363;50.942;7.034;2022-12-10T09:25:25;1.80;96.70
6654;DHT22;3363;50.942;7.034;2022-12-10T09:27:52;1.80;96.30
6654;DHT22;3363;50.942;7.034;2022-12-10T09:30:19;1.80;96.40
6654;DHT22;3363;50.942;7.034;2022-12-10T09:32:46;1.80;96.40
6654;DHT22;3363;50.942;7.034;2022-12-10T09:35:13;1.70;96.60
6654;DHT22;3363;50.942;7.034;2022-12-10T09:37:40;1.70;97.60
6654;DHT22;3363;50.942;7.034;2022-12-10T09:40:10;1.70;97.70
6654;DHT22;3363;50.942;7.034;2022-12-10T09:42:49;1.70;97.40
6654;DHT22;3363;50.942;7.034;2022-12-10T09:45:26;1.80;97.40
6654;DHT22;3363;50.942;7.034;2022-12-10T09:48:03;1.70;96.90
6654;DHT22;3363;50.942;7.034;2022-12-10T09:50:47;1.60;98.30
6654;DHT22;3363;50.942;7.034;2022-12-10T09:53:18;1.30;97.10
6654;DHT22;3363;50.942;7.034;2022-12-10T09:55:47;1.20;99.90
6654;DHT22;3363;50.942;7.034;2022-12-10T09:58:19;1.10;99.90
6654;DHT22;3363;50.942;7.034;2022-12-10T10:00:49;1.20;99.90
6654;DHT22;3363;50.942;7.034;2022-12-10T10:03:18;1.20;99.90
6654;DHT22;3363;50.942;7.034;2022-12-10T10:05:48;1.30;99.90
6654;DHT22;3363;50.942;7.034;2022-12-10T10:08:23;1.40;99.90
6654;DHT22;3363;50.942;7.034;2022-12-10T10:10:54;1.40;99.90
6654;DHT22;3363;50.942;7.034;2022-12-10T10:13:30;1.50;99.90
6654;DHT22;3363;50.942;7.034;2022-12-10T10:16:12;1.60;99.90
6654;DHT22;3363;50.942;7.034;2022-12-10T10:18:45;1.70;99.90
6654;DHT22;3363;50.942;7.034;2022-12-10T10:21:20;1.80;99.90
6654;DHT22;3363;50.942;7.034;2022-12-10T10:23:49;1.80;99.90
6654;DHT22;3363;50.942;7.034;2022-12-10T10:26:16;1.80;99.90
6654;DHT22;3363;50.942;7.034;2022-12-10T10:28:45;1.80;99.90
6654;DHT22;3363;50.942;7.034;2022-12-10T10:31:18;1.90;99.90
6654;DHT22;3363;50.942;7.034;2022-12-10T10:33:49;1.70;99.90
6654;DHT22;3363;50.942;7.034;2022-12-10T10:36:23;1.50;99.90
6654;DHT22;3363;50.942;7.034;2022-12-10T10:38:51;1.50;99.90
6654;DHT22;3363;50.942;7.034;2022-12-10T10:41:19;1.50;99.90
6654;DHT22;3363;50.942;7.034;2022-12-10T10:43:48;1.50;99.90
6654;DHT22;3363;50.942;7.034;2022-12-10T10:46:22;1.50;99.90
6654;DHT22;3363;50.942;7.034;2022-12-10T10:48:49;1.50;99.90
6654;DHT22;3363;50.942;7.034;2022-12-10T10:51:20;1.70;99.90
6654;DHT22;3363;50.942;7.034;2022-12-10T10:53:50;1.80;99.90
6654;DHT22;3363;50.942;7.034;2022-12-10T10:56:20;1.90;99.90
6654;DHT22;3363;50.942;7.034;2022-12-10T10:58:56;1.80;99.90
6654;DHT22;3363;50.942;7.034;2022-12-10T11:01:26;1.70;99.90
6654;DHT22;3363;50.942;7.034;2022-12-10T11:03:56;1.80;99.90
6654;DHT22;3363;50.942;7.034;2022-12-10T11:06:25;1.70;99.90
6654;DHT22;3363;50.942;7.034;2022-12-10T11:08:56;1.60;99.90
6654;DHT22;3363;50.942;7.034;2022-12-10T11:11:32;1.70;99.90
6654;DHT22;3363;50.942;7.034;2022-12-10T11:14:19;1.70;99.90
6654;DHT22;3363;50.942;7.034;2022-12-10T11:16:50;1.60;99.90
6654;DHT22;3363;50.942;7.034;2022-12-10T11:19:26;1.60;99.90
6654;DHT22;3363;50.942;7.034;2022-12-10T11:21:53;1.80;99.90
6654;DHT22;3363;50.942;7.034;2022-12-10T11:24:20;1.80;99.90
6654;DHT22;3363;50.942;7.034;2022-12-10T11:26:59;1.90;99.90
6654;DHT22;3363;50.942;7.034;2022-12-10T11:29:48;1.90;99.90
6654;DHT22;3363;50.942;7.034;2022-12-10T11:32:31;1.80;99.90
6654;DHT22;3363;50.942;7.034;2022-12-10T11:35:29;1.80;99.90
6654;DHT22;3363;50.942;7.034;2022-12-10T11:38:13;1.80;99.90
6654;DHT22;3363;50.942;7.034;2022-12-10T11:40:48;1.90;99.90
6654;DHT22;3363;50.942;7.034;2022-12-10T11:45:51;1.90;99.90
6654;DHT22;3363;50.942;7.034;2022-12-10T11:48:34;1.90;99.90
6654;DHT22;3363;50.942;7.034;2022-12-10T11:51:18;1.90;99.90
6654;DHT22;3363;50.942;7.034;2022-12-10T11:54:00;1.90;99.90
6654;DHT22;3363;50.942;7.034;2022-12-10T11:56:37;1.90;99.90
6654;DHT22;3363;50.942;7.034;2022-12-10T11:59:16;2.00;99.90
6654;DHT22;3363;50.942;7.034;2022-12-10T12:02:03;1.90;99.90
6654;DHT22;3363;50.942;7.034;2022-12-10T12:04:49;1.80;99.90
6654;DHT22;3363;50.942;7.034;2022-12-10T12:07:39;1.70;99.90
6654;DHT22;3363;50.942;7.034;2022-12-10T12:10:28;1.70;99.90
6654;DHT22;3363;50.942;7.034;2022-12-10T12:13:05;1.70;99.90
6654;DHT22;3363;50.942;7.034;2022-12-10T12:15:39;1.80;99.90
6654;DHT22;3363;50.942;7.034;2022-12-10T12:18:17;1.80;99.90
6654;DHT22;3363;50.942;7.034;2022-12-10T12:20:48;1.90;99.90
6654;DHT22;3363;50.942;7.034;2022-12-10T12:23:21;2.00;99.90
6654;DHT22;3363;50.942;7.034;2022-12-10T12:25:54;2.00;99.90
6654;DHT22;3363;50.942;7.034;2022-12-10T12:28:27;2.00;99.90
6654;DHT22;3363;50.942;7.034;2022-12-10T12:31:02;1.90;99.40
6654;DHT22;3363;50.942;7.034;2022-12-10T12:33:40;1.90;99.90
6654;DHT22;3363;50.942;7.034;2022-12-10T12:36:14;2.00;99.90
6654;DHT22;3363;50.942;7.034;2022-12-10T12:38:48;2.00;99.00
6654;DHT22;3363;50.942;7.034;2022-12-10T12:41:29;2.00;99.70
6654;DHT22;3363;50.942;7.034;2022-12-10T12:44:04;2.00;99.90
6654;DHT22;3363;50.942;7.034;2022-12-10T12:46:39;1.90;98.10
6654;DHT22;3363;50.942;7.034;2022-12-10T12:49:14;1.90;99.10
6654;DHT22;3363;50.942;7.034;2022-12-10T12:51:58;1.80;99.10
6654;DHT22;3363;50.942;7.034;2022-12-10T12:54:28;1.80;98.90
6654;DHT22;3363;50.942;7.034;2022-12-10T12:57:01;1.80;98.00
6654;DHT22;3363;50.942;7.034;2022-12-10T12:59:39;1.70;97.70
6654;DHT22;3363;50.942;7.034;2022-12-10T13:02:22;1.70;99.60
6654;DHT22;3363;50.942;7.034;2022-12-10T13:05:02;1.60;98.80
6654;DHT22;3363;50.942;7.034;2022-12-10T13:07:33;1.70;99.90
6654;DHT22;3363;50.942;7.034;2022-12-10T13:10:22;1.80;99.90
6654;DHT22;3363;50.942;7.034;2022-12-10T13:13:06;1.90;99.90
6654;DHT22;3363;50.942;7.034;2022-12-10T13:15:42;2.00;99.90
6654;DHT22;3363;50.942;7.034;2022-12-10T13:18:34;2.00;99.90
6654;DHT22;3363;50.942;7.034;2022-12-10T13:21:27;2.00;99.90
6654;DHT22;3363;50.942;7.034;2022-12-10T13:24:10;2.10;99.90
6654;DHT22;3363;50.942;7.034;2022-12-10T13:27:01;2.10;99.80
6654;DHT22;3363;50.942;7.034;2022-12-10T13:29:44;2.10;99.70
6654;DHT22;3363;50.942;7.034;2022-12-10T13:32:17;2.10;99.80
6654;DHT22;3363;50.942;7.034;2022-12-10T13:34:46;2.10;99.40
6654;DHT22;3363;50.942;7.034;2022-12-10T13:37:25;2.10;98.80
6654;DHT22;3363;50.942;7.034;2022-12-10T13:40:03;2.00;95.90
6654;DHT22;3363;50.942;7.034;2022-12-10T13:42:43;2.00;96.80
6654;DHT22;3363;50.942;7.034;2022-12-10T13:45:34;2.00;98.10
6654;DHT22;3363;50.942;7.034;2022-12-10T13:48:29;2.00;95.90
6654;DHT22;3363;50.942;7.034;2022-12-10T13:51:16;1.90;96.40
6654;DHT22;3363;50.942;7.034;2022-12-10T13:53:59;2.00;98.10
6654;DHT22;3363;50.942;7.034;2022-12-10T13:56:40;2.00;98.70
6654;DHT22;3363;50.942;7.034;2022-12-10T13:59:24;2.00;98.00
6654;DHT22;3363;50.942;7.034;2022-12-10T14:02:03;2.00;98.30
6654;DHT22;3363;50.942;7.034;2022-12-10T14:05:02;2.10;98.00
6654;DHT22;3363;50.942;7.034;2022-12-10T14:07:34;2.10;98.20
6654;DHT22;3363;50.942;7.034;2022-12-10T14:10:03;2.10;98.20
6654;DHT22;3363;50.942;7.034;2022-12-10T14:12:41;2.10;98.20
6654;DHT22;3363;50.942;7.034;2022-12-10T14:15:17;2.10;97.60
6654;DHT22;3363;50.942;7.034;2022-12-10T14:17:50;2.00;96.30
6654;DHT22;3363;50.942;7.034;2022-12-10T14:20:22;2.00;97.30
6654;DHT22;3363;50.942;7.034;2022-12-10T14:22:52;1.90;95.20
6654;DHT22;3363;50.942;7.034;2022-12-10T14:25:44;1.80;97.30
6654;DHT22;3363;50.942;7.034;2022-12-10T14:28:14;1.90;98.70
6654;DHT22;3363;50.942;7.034;2022-12-10T14:30:43;1.90;99.90
6654;DHT22;3363;50.942;7.034;2022-12-10T14:33:14;1.90;98.70
6654;DHT22;3363;50.942;7.034;2022-12-10T14:35:46;1.90;99.90
6654;DHT22;3363;50.942;7.034;2022-12-10T14:38:18;1.90;99.90
6654;DHT22;3363;50.942;7.034;2022-12-10T14:40:48;1.80;99.90
6654;DHT22;3363;50.942;7.034;2022-12-10T14:43:19;1.90;99.90
6654;DHT22;3363;50.942;7.034;2022-12-10T14:45:49;1.90;99.90
6654;DHT22;3363;50.942;7.034;2022-12-10T14:48:19;1.90;99.90
6654;DHT22;3363;50.942;7.034;2022-12-10T14:50:46;2.00;99.90
6654;DHT22;3363;50.942;7.034;2022-12-10T14:53:17;2.00;99.90
6654;DHT22;3363;50.942;7.034;2022-12-10T14:55:46;2.10;99.90
6654;DHT22;3363;50.942;7.034;2022-12-10T14:58:20;2.00;99.90
6654;DHT22;3363;50.942;7.034;2022-12-10T15:00:51;2.10;99.90
6654;DHT22;3363;50.942;7.034;2022-12-10T15:03:27;2.10;99.90
6654;DHT22;3363;50.942;7.034;2022-12-10T15:05:57;2.10;99.90
6654;DHT22;3363;50.942;7.034;2022-12-10T15:08:26;2.10;99.20
6654;DHT22;3363;50.942;7.034;2022-12-10T15:10:58;2.10;99.90
6654;DHT22;3363;50.942;7.034;2022-12-10T15:13:29;2.10;99.70
6654;DHT22;3363;50.942;7.034;2022-12-10T15:16:02;2.10;99.90
6654;DHT22;3363;50.942;7.034;2022-12-10T15:18:31;2.10;99.40
6654;DHT22;3363;50.942;7.034;2022-12-10T15:21:05;2.00;99.90
6654;DHT22;3363;50.942;7.034;2022-12-10T15:23:39;2.10;99.90
6654;DHT22;3363;50.942;7.034;2022-12-10T15:26:15;2.00;99.90
6654;DHT22;3363;50.942;7.034;2022-12-10T15:28:47;2.00;99.90
6654;DHT22;3363;50.942;7.034;2022-12-10T15:31:21;2.00;99.90
6654;DHT22;3363;50.942;7.034;2022-12-10T15:33:50;2.00;99.90
6654;DHT22;3363;50.942;7.034;2022-12-10T15:36:28;2.00;99.80
6654;DHT22;3363;50.942;7.034;2022-12-10T15:39:02;2.00;99.60
6654;DHT22;3363;50.942;7.034;2022-12-10T15:41:41;2.00;99.60
6654;DHT22;3363;50.942;7.034;2022-12-10T15:44:25;2.10;99.50
6654;DHT22;3363;50.942;7.034;2022-12-10T15:46:59;2.10;99.20
6654;DHT22;3363;50.942;7.034;2022-12-10T15:49:28;2.10;98.80
6654;DHT22;3363;50.942;7.034;2022-12-10T15:51:56;2.10;96.90
6654;DHT22;3363;50.942;7.034;2022-12-10T15:54:28;2.10;98.60
6654;DHT22;3363;50.942;7.034;2022-12-10T15:57:06;2.10;99.40
6654;DHT22;3363;50.942;7.034;2022-12-10T15:59:39;2.10;99.50
6654;DHT22;3363;50.942;7.034;2022-12-10T16:02:18;2.10;99.40
6654;DHT22;3363;50.942;7.034;2022-12-10T16:04:53;2.10;98.20
6654;DHT22;3363;50.942;7.034;2022-12-10T16:07:20;2.10;98.70
6654;DHT22;3363;50.942;7.034;2022-12-10T16:09:47;2.00;96.70
6654;DHT22;3363;50.942;7.034;2022-12-10T16:12:16;2.00;99.20
6654;DHT22;3363;50.942;7.034;2022-12-10T16:14:51;2.00;99.30
6654;DHT22;3363;50.942;7.034;2022-12-10T16:17:22;2.00;97.90
6654;DHT22;3363;50.942;7.034;2022-12-10T16:19:49;2.10;99.40
6654;DHT22;3363;50.942;7.034;2022-12-10T16:22:16;2.10;99.20
6654;DHT22;3363;50.942;7.034;2022-12-10T16:24:43;2.10;99.00
6654;DHT22;3363;50.942;7.034;2022-12-10T16:27:12;2.20;99.00
6654;DHT22;3363;50.942;7.034;2022-12-10T16:29:42;2.20;98.30
6654;DHT22;3363;50.942;7.034;2022-12-10T16:32:10;2.20;98.20
6654;DHT22;3363;50.942;7.034;2022-12-10T16:34:38;2.20;97.80
6654;DHT22;3363;50.942;7.034;2022-12-10T16:37:06;2.20;97.00
6654;DHT22;3363;50.942;7.034;2022-12-10T16:39:33;2.10;96.00
6654;DHT22;3363;50.942;7.034;2022-12-10T16:42:00;2.00;95.20
6654;DHT22;3363;50.942;7.034;2022-12-10T16:44:28;2.10;97.20
6654;DHT22;3363;50.942;7.034;2022-12-10T16:46:58;2.10;95.90
6654;DHT22;3363;50.942;7.034;2022-12-10T16:49:25;2.10;97.10
6654;DHT22;3363;50.942;7.034;2022-12-10T16:51:52;2.10;96.40